Terminal Aerodrome Forecast
Issued by NWS

Current Version | Previous Version | Text Only | Print | Product List | Glossary Off
Versions: 1 2 3 4 5 6 7 8 9 10 11 12 13 14 15 16 17 18 19 20 21 22

000
FTUS41 KPBZ 212000 AAB
TAFMGW
TAF AMD
KMGW 212027Z 2120/2218 29005KT 6SM -SHRA SCT015 BKN045
      TEMPO 2120/2122 2SM SHRA BKN015 OVC035
     FM212300 29005KT P6SM VCSH BKN020
     FM221000 33008KT P6SM BKN015 OVC025
     FM221500 33009KT P6SM BKN025=

USA.gov is the U.S. government's official web portal to all federal, state and local government web resources and services.